Time;durP1;ratioP1;P1;durP2;ratioP2;P2;SDS_P1;SDS_P2;PMS_P1;PMS_P2;Temp;Humidity;BMP_temperature;BMP_pressure;BME280_temperature;BME280_humidity;BME280_pressure;Samples;Min_cycle;Max_cycle;Signal;HPM_P1;HPM_P2
2023/12/14 00:01:31;;;;;;;27.33;16.42;;;;;;;5.77;62.00;92873.09;5007058;28;20031;-77
2023/12/14 00:03:57;;;;;;;28.35;16.98;;;;;;;5.74;61.00;92855.22;5008708;28;20044;-77
2023/12/14 00:06:22;;;;;;;21.83;14.38;;;;;;;5.78;61.21;92874.63;4986173;28;20942;-77
2023/12/14 00:08:48;;;;;;;21.05;13.85;;;;;;;5.84;60.65;92847.03;5012131;28;20042;-77
2023/12/14 00:11:13;;;;;;;25.83;14.57;;;;;;;5.97;60.25;92867.25;4994872;28;20034;-77
2023/12/14 00:13:39;;;;;;;20.40;12.27;;;;;;;5.63;61.63;92872.41;5009806;28;20076;-77
2023/12/14 00:16:05;;;;;;;21.98;14.43;;;;;;;5.74;61.51;92884.25;4997460;28;20045;-77
2023/12/14 00:18:31;;;;;;;25.42;14.65;;;;;;;5.59;61.53;92879.38;5003675;28;20026;-77
2023/12/14 00:20:56;;;;;;;25.33;15.30;;;;;;;5.56;61.72;92878.13;5008438;28;20037;-76
2023/12/14 00:23:25;;;;;;;28.70;16.45;;;;;;;5.46;61.65;92856.53;5009274;28;20045;-77
2023/12/14 00:25:51;;;;;;;23.92;15.35;;;;;;;5.57;62.02;92879.69;4996167;28;20452;-77
2023/12/14 00:28:16;;;;;;;24.08;13.88;;;;;;;5.69;61.78;92879.09;4998905;28;20028;-77
2023/12/14 00:30:42;;;;;;;21.92;13.60;;;;;;;5.73;61.02;92866.88;5005816;28;20035;-78
2023/12/14 00:33:08;;;;;;;27.63;14.13;;;;;;;5.79;61.21;92870.94;5009477;28;20095;-77
2023/12/14 00:35:35;;;;;;;18.25;12.57;;;;;;;5.82;60.72;92870.31;5001703;28;20032;-77
2023/12/14 00:38:02;;;;;;;26.33;13.43;;;;;;;5.90;61.13;92861.66;5006956;28;20736;-77
2023/12/14 00:40:28;;;;;;;20.00;12.20;;;;;;;5.90;59.56;92845.81;4993622;28;20033;-76
2023/12/14 00:42:53;;;;;;;24.13;15.02;;;;;;;5.81;60.63;92865.34;5007631;28;20037;-77
2023/12/14 00:45:18;;;;;;;20.13;13.25;;;;;;;5.70;60.54;92867.47;5006638;28;20034;-77
2023/12/14 00:47:44;;;;;;;20.40;12.38;;;;;;;5.64;61.52;92883.75;5009670;28;20087;-76
2023/12/14 00:50:09;;;;;;;30.23;16.05;;;;;;;5.40;62.17;92863.78;5009553;28;20034;-77
2023/12/14 00:52:36;;;;;;;26.42;16.63;;;;;;;5.19;62.22;92851.44;5007275;28;20671;-77
2023/12/14 00:55:03;;;;;;;26.35;15.30;;;;;;;5.37;62.64;92858.34;5009595;28;20034;-75
2023/12/14 00:57:28;;;;;;;25.60;14.65;;;;;;;5.27;61.99;92848.06;5001554;28;20045;-75
2023/12/14 00:59:54;;;;;;;26.73;16.13;;;;;;;5.31;62.76;92865.59;5012381;28;20100;-75
2023/12/14 01:02:34;;;;;;;43.67;22.30;;;;;;;5.46;62.90;92864.44;5006483;28;20411;-77
2023/12/14 01:05:01;;;;;;;33.03;19.20;;;;;;;5.62;62.10;92872.72;4992615;28;20036;-76
2023/12/14 01:07:27;;;;;;;34.55;18.05;;;;;;;5.72;61.27;92880.38;5008953;28;20164;-77
2023/12/14 01:09:53;;;;;;;27.17;14.77;;;;;;;5.29;61.98;92851.94;4996224;28;20037;-76
2023/12/14 01:12:19;;;;;;;30.08;15.48;;;;;;;5.35;62.61;92858.63;4988821;28;20044;-76
2023/12/14 01:14:44;;;;;;;21.70;13.93;;;;;;;5.26;63.27;92891.31;5003554;28;20066;-76
2023/12/14 01:17:10;;;;;;;25.17;15.02;;;;;;;4.37;65.20;92805.19;5006060;28;20029;-77
2023/12/14 01:19:35;;;;;;;26.27;13.43;;;;;;;4.98;64.19;92857.22;5007513;28;20725;-76
2023/12/14 01:22:02;;;;;;;20.95;13.02;;;;;;;5.23;64.21;92870.84;4995003;28;20141;-76
2023/12/14 01:24:27;;;;;;;23.45;13.35;;;;;;;5.45;62.81;92865.50;5009105;28;20033;-76
2023/12/14 01:26:53;;;;;;;22.33;13.25;;;;;;;5.39;62.50;92835.84;4993317;28;20598;-76
2023/12/14 01:29:18;;;;;;;24.52;12.77;;;;;;;5.58;62.38;92867.25;5004423;28;20520;-77
2023/12/14 01:31:43;;;;;;;19.50;12.05;;;;;;;5.76;61.50;92876.03;5007982;28;20025;-76
2023/12/14 01:34:15;;;;;;;25.67;12.77;;;;;;;5.74;61.29;92857.09;5008771;28;20045;-76
2023/12/14 01:36:41;;;;;;;18.10;10.55;;;;;;;5.97;60.83;92875.16;4995195;28;20421;-76
2023/12/14 01:39:07;;;;;;;17.40;10.60;;;;;;;6.06;60.07;92875.22;5007045;28;20041;-76
2023/12/14 01:41:33;;;;;;;16.10;10.73;;;;;;;5.88;60.40;92855.13;5009351;28;20033;-77
2023/12/14 01:43:58;;;;;;;21.92;9.90;;;;;;;5.98;59.90;92873.31;5004188;28;20025;-77
2023/12/14 01:46:24;;;;;;;17.20;9.93;;;;;;;5.89;60.47;92869.88;5010144;28;20030;-77
2023/12/14 01:48:51;;;;;;;15.95;9.48;;;;;;;5.98;60.33;92846.91;4994386;28;20057;-76
2023/12/14 01:51:19;;;;;;;14.52;8.55;;;;;;;6.08;59.76;92840.56;4993214;28;20042;-76
2023/12/14 01:53:45;;;;;;;11.35;8.25;;;;;;;6.16;59.72;92863.63;5006172;28;20042;-76
2023/12/14 01:56:11;;;;;;;15.25;8.73;;;;;;;5.97;60.20;92856.69;4990413;28;20438;-76
2023/12/14 01:58:37;;;;;;;11.27;8.18;;;;;;;6.08;60.21;92872.25;5002441;28;20034;-77
2023/12/14 02:01:20;;;;;;;10.82;7.13;;;;;;;6.16;60.05;92853.06;5007306;28;20026;-76
2023/12/14 02:03:47;;;;;;;14.95;7.72;;;;;;;6.31;59.53;92865.81;4980470;28;20796;-76
2023/12/14 02:06:13;;;;;;;12.88;7.35;;;;;;;6.48;58.76;92851.84;4991787;28;20048;-77
2023/12/14 02:08:38;;;;;;;13.27;7.40;;;;;;;6.46;59.16;92836.28;5009055;28;20045;-77
2023/12/14 02:11:04;;;;;;;11.23;8.27;;;;;;;6.30;59.44;92853.69;4991973;28;20031;-77
2023/12/14 02:13:29;;;;;;;10.43;6.78;;;;;;;6.30;59.25;92819.38;5010850;28;20404;-77
2023/12/14 02:15:55;;;;;;;10.15;6.75;;;;;;;6.50;58.57;92842.53;5001937;28;20108;-77
2023/12/14 02:18:20;;;;;;;11.35;6.68;;;;;;;6.45;58.91;92840.03;5001871;28;20887;-76
2023/12/14 02:20:45;;;;;;;11.48;7.80;;;;;;;6.27;59.27;92801.47;4991504;28;20125;-77
2023/12/14 02:23:11;;;;;;;10.60;6.90;;;;;;;6.57;58.92;92816.41;4992133;28;20048;-76
2023/12/14 02:25:37;;;;;;;7.40;5.88;;;;;;;6.43;58.57;92821.06;5003459;28;20025;-76
2023/12/14 02:28:03;;;;;;;10.07;6.80;;;;;;;6.58;58.44;92810.03;4990657;28;20034;-76
2023/12/14 02:30:28;;;;;;;9.80;6.63;;;;;;;6.62;57.68;92813.59;5005783;28;20049;-77
2023/12/14 02:32:54;;;;;;;9.80;7.40;;;;;;;6.37;58.48;92811.75;4996269;28;20101;-77
2023/12/14 02:35:19;;;;;;;11.73;6.50;;;;;;;6.18;59.33;92829.75;5005681;28;20037;-76
2023/12/14 02:37:45;;;;;;;9.25;6.55;;;;;;;6.18;59.95;92827.88;4991366;28;20495;-76
2023/12/14 02:40:11;;;;;;;11.82;7.07;;;;;;;6.14;59.59;92852.53;5006908;28;20041;-77
2023/12/14 02:42:37;;;;;;;15.85;10.75;;;;;;;5.89;60.57;92802.03;5005832;28;20641;-76
2023/12/14 02:45:03;;;;;;;9.20;7.15;;;;;;;5.95;61.07;92834.34;5005049;28;20404;-76
2023/12/14 02:47:29;;;;;;;11.57;8.30;;;;;;;5.94;60.57;92820.38;5006616;28;20564;-77
2023/12/14 02:49:55;;;;;;;11.52;7.53;;;;;;;6.11;60.05;92824.13;5005746;28;20120;-76
2023/12/14 02:52:21;;;;;;;11.15;6.75;;;;;;;5.97;60.76;92842.72;5006876;28;20027;-76
2023/12/14 02:54:46;;;;;;;8.90;6.95;;;;;;;6.16;60.56;92855.69;4994475;28;20092;-77
2023/12/14 02:57:12;;;;;;;8.80;6.93;;;;;;;6.39;59.73;92855.25;5003136;28;20049;-76
2023/12/14 02:59:37;;;;;;;11.25;6.68;;;;;;;6.41;59.05;92845.13;5005602;28;20575;-77
2023/12/14 03:02:03;;;;;;;11.25;6.82;;;;;;;6.51;59.10;92856.47;5002822;28;20042;-77
2023/12/14 03:04:28;;;;;;;9.23;6.88;;;;;;;6.49;58.76;92845.47;4992200;28;20022;-76
2023/12/14 03:06:56;;;;;;;9.07;6.75;;;;;;;6.65;58.33;92844.69;5006648;28;20470;-76
2023/12/14 03:09:22;;;;;;;11.13;6.70;;;;;;;6.71;58.25;92829.44;4989596;28;20301;-76
2023/12/14 03:11:48;;;;;;;9.90;5.82;;;;;;;6.54;58.44;92826.81;5004070;28;20054;-76
2023/12/14 03:14:14;;;;;;;10.45;6.70;;;;;;;6.54;58.33;92798.53;5010182;28;20120;-77
2023/12/14 03:16:39;;;;;;;8.80;6.15;;;;;;;6.62;58.29;92808.31;5009596;28;20576;-76
2023/12/14 03:19:05;;;;;;;8.77;6.55;;;;;;;5.89;60.71;92793.34;5011201;28;20025;-76
2023/12/14 03:21:30;;;;;;;7.57;5.57;;;;;;;6.12;60.13;92815.09;5007239;28;20033;-76
2023/12/14 03:23:56;;;;;;;9.32;6.03;;;;;;;6.15;60.04;92825.84;4998141;28;20042;-76
2023/12/14 03:26:22;;;;;;;7.72;5.68;;;;;;;6.00;60.08;92808.59;5009448;28;20369;-77
2023/12/14 03:28:47;;;;;;;8.30;5.00;;;;;;;6.27;59.86;92806.75;5009483;28;20092;-77
2023/12/14 03:31:13;;;;;;;6.93;5.25;;;;;;;6.24;59.92;92833.78;5009036;28;20116;-77
2023/12/14 03:33:40;;;;;;;7.70;5.20;;;;;;;6.18;60.67;92835.03;5009150;28;20608;-75
2023/12/14 03:36:05;;;;;;;8.15;5.68;;;;;;;5.97;60.97;92793.34;5011739;28;20029;-76
2023/12/14 03:38:32;;;;;;;11.45;6.38;;;;;;;5.94;61.09;92815.09;5006926;28;20527;-76
2023/12/14 03:40:57;;;;;;;8.27;6.03;;;;;;;5.86;61.36;92781.56;5006266;28;20029;-77
2023/12/14 03:43:29;;;;;;;6.93;4.22;;;;;;;5.70;62.99;92787.56;5008774;28;20028;-76
2023/12/14 03:45:54;;;;;;;7.03;4.63;;;;;;;5.77;62.38;92772.84;4994367;28;20034;-76
2023/12/14 03:48:20;;;;;;;6.15;4.85;;;;;;;5.08;62.15;92656.69;5007871;28;20531;-76
2023/12/14 03:50:45;;;;;;;5.68;4.55;;;;;;;6.17;61.18;92797.28;4983633;28;20682;-77
2023/12/14 03:53:11;;;;;;;5.53;4.25;;;;;;;5.84;61.80;92762.59;4996088;28;20057;-77
2023/12/14 03:55:36;;;;;;;7.72;5.10;;;;;;;6.16;61.30;92773.84;5008216;28;20534;-77
2023/12/14 03:58:03;;;;;;;5.78;3.85;;;;;;;6.21;60.71;92760.50;5009286;28;20029;-76
2023/12/14 04:00:28;;;;;;;5.68;3.58;;;;;;;6.46;59.81;92770.25;4990258;28;20614;-76
2023/12/14 04:02:54;;;;;;;5.70;3.83;;;;;;;6.55;58.89;92765.00;5009798;28;20042;-77
2023/12/14 04:05:20;;;;;;;6.35;4.43;;;;;;;6.27;59.01;92751.31;5004840;28;20034;-76
2023/12/14 04:07:45;;;;;;;6.05;4.10;;;;;;;6.66;58.77;92788.09;5011757;28;20032;-76
2023/12/14 04:10:29;;;;;;;5.55;4.00;;;;;;;6.48;58.80;92760.16;5005468;28;20048;-76
2023/12/14 04:12:54;;;;;;;6.50;4.90;;;;;;;6.68;58.01;92796.50;5001132;28;20488;-77
2023/12/14 04:15:20;;;;;;;6.03;4.35;;;;;;;6.71;57.97;92811.72;5004466;28;20049;-76
2023/12/14 04:17:45;;;;;;;7.25;5.20;;;;;;;6.12;59.73;92793.97;5010122;28;20461;-76
2023/12/14 04:20:14;;;;;;;6.72;3.60;;;;;;;6.06;60.03;92797.88;4999042;28;20033;-76
2023/12/14 04:22:39;;;;;;;7.35;4.47;;;;;;;6.11;60.67;92808.28;5009213;28;20108;-77
2023/12/14 04:25:05;;;;;;;8.27;4.40;;;;;;;6.35;59.87;92803.38;5009363;28;20052;-77
2023/12/14 04:27:30;;;;;;;5.90;4.53;;;;;;;6.61;59.29;92816.56;5004070;28;20045;-77
2023/12/14 04:29:56;;;;;;;7.50;4.95;;;;;;;6.51;59.39;92830.06;5009150;28;20725;-77
2023/12/14 04:32:22;;;;;;;7.22;4.90;;;;;;;6.58;59.04;92807.41;4988464;28;20108;-77
2023/12/14 04:34:47;;;;;;;5.57;4.95;;;;;;;6.19;60.15;92778.50;5008638;28;20034;-77
2023/12/14 04:37:13;;;;;;;6.78;4.72;;;;;;;6.39;59.07;92799.00;5007521;28;20076;-78
2023/12/14 04:39:38;;;;;;;9.98;4.93;;;;;;;6.34;59.67;92801.81;5007782;28;20033;-76
2023/12/14 04:42:04;;;;;;;6.60;4.88;;;;;;;5.98;61.16;92823.94;4988610;28;20076;-77
2023/12/14 04:44:29;;;;;;;7.13;5.30;;;;;;;6.11;60.57;92793.22;4989499;28;20038;-76
2023/12/14 04:46:55;;;;;;;5.63;4.65;;;;;;;5.93;61.84;92812.75;5007271;28;20388;-76
2023/12/14 04:49:20;;;;;;;7.50;4.95;;;;;;;5.88;60.18;92760.13;5009709;28;20025;-76
2023/12/14 04:51:46;;;;;;;8.07;5.03;;;;;;;5.87;60.99;92782.34;4977950;28;20044;-76
2023/12/14 04:54:11;;;;;;;7.28;5.68;;;;;;;5.77;62.42;92798.47;5006128;28;20034;-76
2023/12/14 04:56:37;;;;;;;8.10;5.28;;;;;;;5.98;61.43;92802.03;5008744;28;20072;-75
2023/12/14 04:59:02;;;;;;;7.45;5.07;;;;;;;6.02;61.06;92812.78;4995958;28;20080;-76
2023/12/14 05:01:28;;;;;;;8.50;6.32;;;;;;;6.30;60.39;92809.59;5005982;28;20387;-77
2023/12/14 05:03:54;;;;;;;7.47;5.63;;;;;;;6.59;59.25;92808.97;5008902;28;20104;-77
2023/12/14 05:06:21;;;;;;;7.07;5.57;;;;;;;6.56;59.26;92788.44;5007946;28;20041;-77
2023/12/14 05:08:47;;;;;;;9.77;6.80;;;;;;;6.57;58.89;92811.13;5009827;28;20040;-76
2023/12/14 05:11:13;;;;;;;9.63;6.97;;;;;;;6.63;58.74;92795.88;4991303;28;20029;-76
2023/12/14 05:13:39;;;;;;;13.00;6.55;;;;;;;6.42;59.23;92799.16;5009243;28;20079;-76
2023/12/14 05:16:05;;;;;;;18.13;10.35;;;;;;;5.92;59.95;92743.34;5006296;28;20046;-77
2023/12/14 05:18:30;;;;;;;8.77;7.05;;;;;;;6.35;59.30;92806.00;5006392;28;20109;-76
2023/12/14 05:20:56;;;;;;;10.73;6.80;;;;;;;6.38;59.58;92808.78;4992698;28;21078;-76
2023/12/14 05:23:21;;;;;;;11.05;7.68;;;;;;;6.56;58.90;92783.16;5006025;28;20281;-76
2023/12/14 05:25:47;;;;;;;10.43;6.38;;;;;;;6.77;58.17;92788.56;5007438;28;20042;-77
2023/12/14 05:28:13;;;;;;;9.85;7.30;;;;;;;6.59;58.34;92793.09;5006028;28;21020;-77
2023/12/14 05:30:38;;;;;;;12.75;5.60;;;;;;;6.22;60.11;92791.06;5005564;28;20225;-75
2023/12/14 05:33:04;;;;;;;32.90;21.50;;;;;;;6.51;59.11;92822.94;5008713;28;20032;-76
2023/12/14 05:35:29;;;;;;;21.65;12.43;;;;;;;6.45;59.48;92813.63;4989677;28;20512;-76
2023/12/14 05:37:55;;;;;;;29.40;18.35;;;;;;;6.13;59.28;92790.25;4988277;28;20025;-77
2023/12/14 05:40:20;;;;;;;18.63;12.40;;;;;;;6.42;59.54;92816.88;5005054;28;20259;-77
2023/12/14 05:42:46;;;;;;;19.35;9.70;;;;;;;6.19;60.32;92810.19;4991072;28;20037;-77
2023/12/14 05:45:11;;;;;;;12.05;6.47;;;;;;;6.32;60.03;92846.22;5007425;28;20051;-77
2023/12/14 05:47:38;;;;;;;12.15;6.80;;;;;;;6.37;59.97;92846.84;5006362;28;20608;-76
2023/12/14 05:50:04;;;;;;;10.20;7.00;;;;;;;6.17;60.21;92828.97;5007952;28;20940;-76
2023/12/14 05:52:30;;;;;;;9.50;6.05;;;;;;;5.92;60.92;92822.53;5004889;28;20091;-76
2023/12/14 05:54:56;;;;;;;8.85;6.18;;;;;;;5.91;61.79;92831.53;5007850;28;20405;-76
2023/12/14 05:57:21;;;;;;;19.33;14.23;;;;;;;6.03;60.64;92828.28;5006164;28;20696;-77
2023/12/14 05:59:46;;;;;;;11.63;9.35;;;;;;;5.97;61.45;92827.66;4985687;28;20057;-75
2023/12/14 06:02:12;;;;;;;12.27;8.50;;;;;;;6.24;60.54;92829.28;5000716;28;20034;-77
2023/12/14 06:04:37;;;;;;;7.05;6.32;;;;;;;6.38;60.13;92863.47;4985855;28;20025;-76
2023/12/14 06:07:17;;;;;;;10.23;7.85;;;;;;;5.95;60.72;92821.94;4995012;28;20061;-76
2023/12/14 06:09:50;;;;;;;9.30;7.07;;;;;;;6.19;60.84;92857.72;4981013;28;20041;-76
2023/12/14 06:12:17;;;;;;;10.00;6.00;;;;;;;6.23;60.41;92843.56;4980524;28;20406;-76
2023/12/14 06:14:44;;;;;;;9.10;6.30;;;;;;;6.35;60.37;92840.34;4983145;28;20077;-76
2023/12/14 06:17:10;;;;;;;9.63;5.22;;;;;;;6.45;59.69;92834.75;4972060;28;20038;-76
2023/12/14 06:19:36;;;;;;;7.63;5.07;;;;;;;6.53;59.36;92857.75;4979149;28;20065;-76
2023/12/14 06:22:20;;;;;;;8.70;5.57;;;;;;;6.46;60.30;92852.13;4977080;28;20505;-76
2023/12/14 06:24:46;;;;;;;11.50;6.30;;;;;;;6.73;58.92;92862.41;4975790;28;20555;-77
2023/12/14 06:27:13;;;;;;;7.05;5.07;;;;;;;6.44;58.87;92827.91;4976457;28;20073;-76
2023/12/14 06:29:38;;;;;;;10.18;6.25;;;;;;;6.42;60.15;92849.34;4969921;28;20146;-76
2023/12/14 06:32:06;;;;;;;14.98;8.82;;;;;;;6.54;59.85;92874.38;4997608;28;20663;-76
2023/12/14 06:34:32;;;;;;;11.85;7.97;;;;;;;6.56;59.85;92862.41;4983799;28;20026;-77
2023/12/14 06:36:59;;;;;;;12.38;8.43;;;;;;;6.60;59.80;92879.19;4982325;28;21087;-76
2023/12/14 06:39:27;;;;;;;10.23;7.45;;;;;;;6.73;59.57;92872.97;4985064;28;20109;-77
2023/12/14 06:41:53;;;;;;;7.55;5.97;;;;;;;6.91;59.05;92867.66;4982882;28;20485;-77
2023/12/14 06:44:18;;;;;;;8.07;6.50;;;;;;;6.56;59.38;92862.41;4984629;28;20599;-76
2023/12/14 06:46:44;;;;;;;8.10;5.90;;;;;;;7.02;58.45;92901.41;4985665;28;20029;-77
2023/12/14 06:49:09;;;;;;;10.25;6.70;;;;;;;6.94;57.54;92867.06;4984790;28;20038;-77
2023/12/14 06:51:35;;;;;;;11.07;7.22;;;;;;;6.99;58.70;92909.97;4984275;28;20037;-77
2023/12/14 06:54:01;;;;;;;13.27;8.48;;;;;;;6.65;59.21;92886.94;4987091;28;20029;-76
2023/12/14 06:56:27;;;;;;;10.93;8.40;;;;;;;6.71;59.53;92874.38;4988165;28;20042;-77
2023/12/14 06:58:53;;;;;;;14.05;10.88;;;;;;;6.91;58.63;92870.31;4981085;28;20042;-77
2023/12/14 07:01:18;;;;;;;14.73;9.23;;;;;;;6.96;58.70;92918.50;4984247;28;20103;-77
2023/12/14 07:03:45;;;;;;;12.30;8.52;;;;;;;6.45;58.76;92823.41;4981988;28;20101;-77
2023/12/14 07:06:14;;;;;;;11.88;7.45;;;;;;;7.09;58.11;92864.69;4984428;28;20034;-76
2023/12/14 07:08:40;;;;;;;14.70;8.32;;;;;;;7.28;57.54;92878.38;4989942;28;20442;-76
2023/12/14 07:11:11;;;;;;;8.40;6.13;;;;;;;7.41;56.97;92895.13;4988175;28;20029;-76
2023/12/14 07:13:37;;;;;;;10.18;6.30;;;;;;;6.98;57.71;92854.78;4991310;28;20025;-76
2023/12/14 07:16:07;;;;;;;8.45;5.75;;;;;;;6.74;58.41;92850.75;5001341;28;20048;-76
2023/12/14 07:18:34;;;;;;;10.43;6.40;;;;;;;7.44;57.98;92907.72;5005197;28;20282;-77
2023/12/14 07:21:07;;;;;;;12.20;5.72;;;;;;;7.51;56.90;92900.09;5007321;28;20033;-76
2023/12/14 07:23:34;;;;;;;8.38;5.72;;;;;;;7.59;57.08;92904.56;4990926;28;20088;-76
2023/12/14 07:26:04;;;;;;;7.78;5.93;;;;;;;7.78;56.54;92917.47;4979204;28;20091;-77
2023/12/14 07:28:29;;;;;;;8.73;5.90;;;;;;;8.04;55.72;92920.03;4981497;28;20017;-76
2023/12/14 07:30:55;;;;;;;8.30;6.35;;;;;;;7.50;56.03;92906.47;4998602;28;20076;-76
2023/12/14 07:33:21;;;;;;;8.70;6.50;;;;;;;7.64;57.39;92907.06;4983586;28;20164;-77
2023/12/14 07:35:47;;;;;;;11.02;6.05;;;;;;;7.83;56.22;92913.88;4989898;28;20983;-76
2023/12/14 07:38:13;;;;;;;7.55;5.28;;;;;;;8.08;56.05;92910.34;4997472;28;20033;-77
2023/12/14 07:40:40;;;;;;;8.10;5.03;;;;;;;7.87;55.82;92920.09;4998922;28;20225;-77
2023/12/14 07:43:05;;;;;;;6.50;5.03;;;;;;;7.86;56.26;92900.78;4995601;28;20508;-77
2023/12/14 07:45:35;;;;;;;7.07;5.32;;;;;;;8.00;55.68;92935.78;4997643;28;20049;-77
2023/12/14 07:48:05;;;;;;;7.60;5.38;;;;;;;8.18;55.39;92912.63;4988196;28;20123;-76
2023/12/14 07:50:30;;;;;;;12.05;6.13;;;;;;;7.37;56.91;92907.44;4980751;28;20046;-74
2023/12/14 07:52:56;;;;;;;6.90;5.80;;;;;;;7.96;56.85;92913.69;4986257;28;20036;-77
2023/12/14 07:55:22;;;;;;;7.53;4.82;;;;;;;7.72;56.01;92934.59;4993673;28;20040;-76
2023/12/14 07:57:55;;;;;;;6.70;6.00;;;;;;;8.07;55.82;92924.69;5001897;28;20049;-76
2023/12/14 08:00:24;;;;;;;8.02;4.90;;;;;;;8.24;55.37;92929.91;4976855;28;20409;-76
2023/12/14 08:02:51;;;;;;;7.95;5.18;;;;;;;8.52;55.16;92948.75;5013023;28;20137;-76
2023/12/14 08:05:23;;;;;;;8.98;5.15;;;;;;;7.79;55.83;92910.31;5006451;28;20045;-75
2023/12/14 08:07:52;;;;;;;7.10;4.93;;;;;;;7.71;57.34;92928.53;4995407;28;20069;-76
2023/12/14 08:10:20;;;;;;;6.70;5.45;;;;;;;8.19;56.34;92921.34;5013485;28;20033;-75
2023/12/14 08:12:51;;;;;;;8.23;4.72;;;;;;;8.22;55.57;92920.75;4987587;28;20034;-76
2023/12/14 08:15:23;;;;;;;7.95;4.90;;;;;;;8.07;55.32;92925.44;5009222;28;20582;-76
2023/12/14 08:17:49;;;;;;;7.70;4.93;;;;;;;8.46;55.73;92921.66;5006835;28;20128;-76
2023/12/14 08:20:16;;;;;;;10.30;6.00;;;;;;;8.68;55.35;92928.56;4996491;28;20068;-76
2023/12/14 08:22:44;;;;;;;10.30;5.05;;;;;;;8.72;54.83;92916.22;5010462;28;20167;-76
2023/12/14 08:25:14;;;;;;;10.48;6.13;;;;;;;8.98;54.70;92929.28;5011766;28;20053;-75
2023/12/14 08:27:41;;;;;;;7.57;4.93;;;;;;;8.93;53.89;92934.78;5004778;28;20381;-75
2023/12/14 08:30:08;;;;;;;8.40;5.22;;;;;;;8.38;54.47;92913.78;4983498;28;20041;-76
2023/12/14 08:32:34;;;;;;;7.80;5.28;;;;;;;8.78;54.66;92940.66;4981968;28;20030;-76
2023/12/14 08:34:59;;;;;;;11.18;5.78;;;;;;;8.74;54.33;92926.50;4997049;28;20029;-76
2023/12/14 08:37:25;;;;;;;13.70;6.88;;;;;;;8.28;55.46;92919.44;4999891;28;20097;-77
2023/12/14 08:39:51;;;;;;;12.07;6.32;;;;;;;8.47;56.12;92946.28;5001904;28;20042;-75
2023/12/14 08:42:21;;;;;;;6.20;4.90;;;;;;;8.71;54.96;92943.03;4993697;28;20560;-76
2023/12/14 08:44:47;;;;;;;7.82;5.38;;;;;;;8.31;55.21;92956.69;5000860;28;20061;-75
2023/12/14 08:47:13;;;;;;;6.90;5.20;;;;;;;8.53;54.88;92932.56;5000056;28;20042;-76
2023/12/14 08:49:39;;;;;;;10.48;5.70;;;;;;;8.24;55.99;92940.50;4998930;28;20037;-76
2023/12/14 08:52:05;;;;;;;13.02;7.50;;;;;;;8.74;55.40;92942.41;4998387;28;20037;-76
2023/12/14 08:54:30;;;;;;;15.38;7.22;;;;;;;8.78;54.76;92922.09;5001637;28;20037;-76
2023/12/14 08:57:00;;;;;;;11.75;7.25;;;;;;;8.57;54.58;92927.38;4984029;28;20509;-76
2023/12/14 08:59:27;;;;;;;10.38;5.75;;;;;;;8.97;54.04;92935.69;4984233;28;20037;-77
2023/12/14 09:01:53;;;;;;;7.95;5.00;;;;;;;8.97;53.63;92938.34;4997078;28;20084;-77
2023/12/14 09:04:20;;;;;;;7.65;4.43;;;;;;;8.78;54.38;92932.72;5000356;28;20021;-77
2023/12/14 09:06:46;;;;;;;6.70;4.45;;;;;;;8.97;53.87;92931.16;5000872;28;20048;-76
2023/12/14 09:09:12;;;;;;;6.88;5.10;;;;;;;8.58;55.07;92934.22;4997519;28;20504;-76
2023/12/14 09:11:38;;;;;;;6.72;4.70;;;;;;;8.97;53.83;92947.06;4957342;28;20046;-77
2023/12/14 09:14:05;;;;;;;6.50;4.88;;;;;;;9.00;53.92;92958.91;4970533;28;20617;-75
2023/12/14 09:16:30;;;;;;;6.43;4.70;;;;;;;9.35;53.18;92938.22;4962717;28;20238;-76
2023/12/14 09:18:55;;;;;;;7.32;5.25;;;;;;;9.04;53.50;92930.66;4960665;28;20162;-76
2023/12/14 09:21:21;;;;;;;7.47;4.90;;;;;;;9.45;54.02;92941.25;4965160;28;20047;-77
2023/12/14 09:23:47;;;;;;;9.85;4.55;;;;;;;9.79;52.81;92932.16;4956197;28;20031;-77
2023/12/14 09:26:13;;;;;;;9.07;4.43;;;;;;;9.77;52.29;92925.63;4965789;28;20043;-77
2023/12/14 09:28:39;;;;;;;6.85;4.68;;;;;;;9.85;52.12;92911.47;4967814;28;20015;-76
2023/12/14 09:31:05;;;;;;;6.70;5.30;;;;;;;10.18;52.03;92928.13;4963456;28;20085;-76
2023/12/14 09:33:34;;;;;;;7.97;3.78;;;;;;;10.42;50.86;92924.72;4968636;28;20105;-76
2023/12/14 09:36:04;;;;;;;9.13;4.78;;;;;;;10.63;50.29;92951.19;4978241;28;20026;-77
2023/12/14 09:38:29;;;;;;;6.57;5.47;;;;;;;10.39;50.28;92940.56;4994483;28;20035;-76
2023/12/14 09:40:55;;;;;;;6.47;4.32;;;;;;;10.37;51.21;92930.25;4972838;28;20037;-77
2023/12/14 09:43:23;;;;;;;8.30;4.57;;;;;;;10.51;50.23;92932.59;4967115;28;20691;-77
2023/12/14 09:45:50;;;;;;;6.97;4.50;;;;;;;10.75;49.88;92932.56;4964946;28;20046;-77
2023/12/14 09:48:16;;;;;;;7.70;3.90;;;;;;;10.93;49.14;92960.47;4968178;28;20442;-76
2023/12/14 09:50:44;;;;;;;7.18;4.43;;;;;;;10.94;48.83;92946.06;4965259;28;20038;-77
2023/12/14 09:53:10;;;;;;;6.60;3.70;;;;;;;10.64;48.90;92953.53;4967297;28;20035;-76
2023/12/14 09:55:35;;;;;;;8.00;3.70;;;;;;;10.72;49.50;92962.47;4965433;28;20524;-77
2023/12/14 09:58:02;;;;;;;7.45;4.05;;;;;;;10.62;49.43;92965.59;4965987;28;20046;-76
2023/12/14 10:00:39;;;;;;;5.63;3.70;;;;;;;11.06;50.21;92977.94;4966984;28;20092;-77
2023/12/14 10:03:27;;;;;;;5.85;3.80;;;;;;;10.99;48.50;92964.47;4965836;28;20034;-77
2023/12/14 10:05:53;;;;;;;7.50;4.05;;;;;;;10.64;49.28;92952.75;4983012;28;20540;-77
2023/12/14 10:08:19;;;;;;;7.78;4.05;;;;;;;10.79;49.17;92949.41;4966640;28;20042;-76
2023/12/14 10:10:55;;;;;;;5.68;3.60;;;;;;;11.10;48.53;92954.13;4966798;28;20022;-76
2023/12/14 10:13:41;;;;;;;7.05;3.33;;;;;;;11.17;48.53;92941.00;4964948;28;20516;-76
2023/12/14 10:16:07;;;;;;;4.97;3.35;;;;;;;11.25;47.36;92934.03;4983045;28;20100;-76
2023/12/14 10:18:36;;;;;;;6.30;4.57;;;;;;;10.77;48.86;92943.63;4983447;28;20042;-77
2023/12/14 10:21:21;;;;;;;7.05;4.60;;;;;;;11.32;48.59;92952.84;4985212;28;20038;-76
2023/12/14 10:23:51;;;;;;;9.07;4.93;;;;;;;11.12;47.52;92936.69;4989551;28;20131;-77
2023/12/14 10:26:18;;;;;;;10.48;3.83;;;;;;;11.41;47.83;92940.94;4981696;28;20046;-77
2023/12/14 10:28:48;;;;;;;9.18;4.50;;;;;;;11.53;47.68;92934.81;4985604;28;20032;-77
2023/12/14 10:31:16;;;;;;;11.30;4.30;;;;;;;11.11;48.61;92945.78;4984477;28;20053;-77
2023/12/14 10:33:47;;;;;;;12.55;6.15;;;;;;;11.17;48.11;92949.78;4984851;28;20049;-77
2023/12/14 10:36:24;;;;;;;15.25;7.88;;;;;;;10.98;49.10;92970.88;4989885;28;20081;-77
2023/12/14 10:39:06;;;;;;;12.30;5.80;;;;;;;10.86;49.08;92968.22;4985491;28;20077;-76
2023/12/14 10:41:37;;;;;;;17.85;7.10;;;;;;;11.22;48.87;92974.59;4986351;28;20041;-75
2023/12/14 10:44:04;;;;;;;24.27;9.27;;;;;;;11.33;48.58;92979.13;4985836;28;20613;-77
2023/12/14 10:46:29;;;;;;;172.82;86.63;;;;;;;11.49;48.29;92965.88;4985281;28;20025;-77
2023/12/14 10:48:55;;;;;;;28.10;14.25;;;;;;;11.07;48.43;92971.53;4983333;28;20124;-77
2023/12/14 10:51:25;;;;;;;14.68;8.18;;;;;;;10.93;48.82;92991.63;4983247;28;20042;-77
2023/12/14 10:53:53;;;;;;;14.65;8.43;;;;;;;11.01;49.46;92996.81;4982306;28;20497;-77
2023/12/14 10:56:19;;;;;;;848.67;424.30;;;;;;;10.96;50.09;93013.00;4985444;28;20033;-77
2023/12/14 10:58:47;;;;;;;268.30;131.55;;;;;;;10.94;50.22;93004.59;4986729;28;20033;-77
2023/12/14 11:01:18;;;;;;;28.42;22.35;;;;;;;11.18;50.70;93006.44;4989159;28;20049;-77
2023/12/14 11:03:44;;;;;;;14.77;10.82;;;;;;;10.96;52.28;93007.66;4996388;28;20041;-76
2023/12/14 11:06:22;;;;;;;47.08;27.50;;;;;;;10.91;52.88;93015.09;5003082;28;20038;-78
2023/12/14 11:08:48;;;;;;;14.55;11.02;;;;;;;10.78;53.67;93001.03;4985627;28;20064;-77
2023/12/14 11:11:20;;;;;;;35.78;22.40;;;;;;;10.81;54.17;93024.31;4988272;28;20701;-77
2023/12/14 11:13:52;;;;;;;17.40;10.15;;;;;;;10.64;55.10;93027.19;4981970;28;20810;-77
2023/12/14 11:16:21;;;;;;;12.13;7.68;;;;;;;10.47;55.92;93030.81;4980677;28;20057;-77
2023/12/14 11:18:47;;;;;;;9.10;4.15;;;;;;;10.09;56.14;93048.88;4993781;28;20043;-77
2023/12/14 11:21:27;;;;;;;9.07;6.70;;;;;;;9.76;56.39;93044.34;4993601;28;20097;-76
2023/12/14 11:23:53;;;;;;;6.50;4.65;;;;;;;9.49;57.22;93054.72;4987929;28;20465;-76
2023/12/14 11:26:25;;;;;;;6.45;4.20;;;;;;;9.28;57.33;93042.22;4984697;28;20046;-76
2023/12/14 11:28:50;;;;;;;5.57;4.45;;;;;;;9.18;57.45;93049.78;4984359;28;20120;-77
2023/12/14 11:31:17;;;;;;;5.03;3.97;;;;;;;9.17;57.85;93061.50;4983322;28;20846;-76
2023/12/14 11:33:44;;;;;;;8.95;6.05;;;;;;;9.05;58.57;93059.50;4983962;28;20026;-76